PWSweather.com
Personal Weather Stations
Station Observations

SaroSE

Lat: 57.5222, Lon: 11.947

Elevation: 35

Station Type: Davis VP2

http://www.lokaltvader.se/

Latest ConditionsUpdated 5:00:00 PM GMT+01:01 Tuesday, Mar 19, 2019
Currently Today's Max Today's Min Today's Average
Temperature 43.3°F6.3°C 43.6°F6.4°C 33.1°F0.6°C 38.6°F3.7°C
Dew Point 32.7°F0.4°C 33.2°F0.7°C 24.2°F-4.3°C 26.6°F-3.0°C
Winds 2.3 mph NW3.7 kmh NW 17.3 mph -27.8 kmh - - 10.3 mph 16.6 kmh
Wind Gusts 4.6 mph7.4 kmh 23.0 mph37.0 kmh - -
Humidity 66% 71% 49% 62%
Pressure 30.20 in1022.7 mb 30.20 in1022.7 mb 29.89 in1012.2 mb -
Hour Temp Dew Point Humidity Winds Wind Gusts Pressure Precip Precip Rate Daily Precip Total
05:00 PM 43.3°F6.3°C 32.7°F0.4°C 66% 2.3 mph NW3.7 kmh NW 4.6 mph7.4 kmh 30.20 in1022.7 mb - 0.00 in0.0 mm 0.00 in0.0 mm
04:45 PM 42.9°F6.1°C 33.1°F0.6°C 68% 1.2 mph NW1.9 kmh NW 3.5 mph5.6 kmh 30.20 in1022.7 mb - 0.00 in0.0 mm 0.00 in0.0 mm
04:30 PM 43.1°F6.2°C 33.2°F0.7°C 68% 1.2 mph NW1.9 kmh NW 3.5 mph5.6 kmh 30.20 in1022.7 mb - 0.00 in0.0 mm 0.00 in0.0 mm
04:15 PM 42.7°F5.9°C 31.7°F-0.2°C 65% 10.4 mph NW16.7 kmh NW 11.5 mph18.5 kmh 30.20 in1022.7 mb - 0.00 in0.0 mm 0.00 in0.0 mm
04:00 PM 43.1°F6.2°C 31.3°F-0.4°C 63% 9.2 mph NW14.8 kmh NW 11.5 mph18.5 kmh 30.20 in1022.7 mb - 0.00 in0.0 mm 0.00 in0.0 mm
03:45 PM 42.8°F6.0°C 29.0°F-1.7°C 58% 11.5 mph NW18.5 kmh NW 13.8 mph22.2 kmh 30.20 in1022.7 mb - 0.00 in0.0 mm 0.00 in0.0 mm
03:30 PM 43.0°F6.1°C 30.5°F-0.8°C 61% 11.5 mph NNW18.5 kmh NNW 12.7 mph20.4 kmh 30.20 in1022.7 mb - 0.00 in0.0 mm 0.00 in0.0 mm
03:15 PM 42.8°F6.0°C 31.1°F-0.5°C 63% 13.8 mph NW22.2 kmh NW 16.1 mph25.9 kmh 30.19 in1022.4 mb - 0.00 in0.0 mm 0.00 in0.0 mm
03:00 PM 43.0°F6.1°C 32.8°F0.4°C 67% 13.8 mph NW22.2 kmh NW 17.3 mph27.8 kmh 30.18 in1022.0 mb - 0.00 in0.0 mm 0.00 in0.0 mm
02:45 PM 43.3°F6.3°C 31.6°F-0.2°C 63% 12.7 mph NW20.4 kmh NW 16.1 mph25.9 kmh 30.18 in1022.0 mb - 0.00 in0.0 mm 0.00 in0.0 mm
02:30 PM 43.5°F6.4°C 30.5°F-0.8°C 60% 12.7 mph NW20.4 kmh NW 15.0 mph24.1 kmh 30.18 in1022.0 mb - 0.00 in0.0 mm 0.00 in0.0 mm
02:15 PM 43.0°F6.1°C 30.5°F-0.8°C 61% 16.1 mph NW25.9 kmh NW 17.3 mph27.8 kmh 30.18 in1022.0 mb - 0.00 in0.0 mm 0.00 in0.0 mm
02:00 PM 43.3°F6.3°C 27.3°F-2.6°C 53% 11.5 mph NW18.5 kmh NW 15.0 mph24.1 kmh 30.18 in1022.0 mb - 0.00 in0.0 mm 0.00 in0.0 mm
01:45 PM 43.3°F6.3°C 27.3°F-2.6°C 53% 16.1 mph NW25.9 kmh NW 18.4 mph29.6 kmh 30.18 in1022.0 mb - 0.00 in0.0 mm 0.00 in0.0 mm
01:30 PM 43.4°F6.3°C 27.8°F-2.3°C 54% 16.1 mph NNW25.9 kmh NNW 18.4 mph29.6 kmh 30.18 in1022.0 mb - 0.00 in0.0 mm 0.00 in0.0 mm
01:15 PM 43.2°F6.2°C 27.6°F-2.4°C 54% 17.3 mph NNW27.8 kmh NNW 19.6 mph31.5 kmh 30.17 in1021.7 mb - 0.00 in0.0 mm 0.00 in0.0 mm
01:00 PM 43.6°F6.4°C 28.0°F-2.2°C 54% 15.0 mph NW24.1 kmh NW 19.6 mph31.5 kmh 30.17 in1021.7 mb - 0.00 in0.0 mm 0.00 in0.0 mm
12:45 PM 43.5°F6.4°C 27.9°F-2.3°C 54% 15.0 mph NW24.1 kmh NW 23.0 mph37.0 kmh 30.16 in1021.3 mb - 0.00 in0.0 mm 0.00 in0.0 mm
12:30 PM 43.2°F6.2°C 25.3°F-3.7°C 49% 9.2 mph NNW14.8 kmh NNW 11.5 mph18.5 kmh 30.16 in1021.3 mb - 0.00 in0.0 mm 0.00 in0.0 mm
12:15 PM 43.2°F6.2°C 26.3°F-3.2°C 51% 9.2 mph NNW14.8 kmh NNW 16.1 mph25.9 kmh 30.16 in1021.3 mb - 0.00 in0.0 mm 0.00 in0.0 mm
12:00 PM 43.1°F6.2°C 25.2°F-3.8°C 49% 15.0 mph NW24.1 kmh NW 19.6 mph31.5 kmh 30.16 in1021.3 mb - 0.00 in0.0 mm 0.00 in0.0 mm
11:45 AM 42.7°F5.9°C 26.7°F-2.9°C 53% 5.8 mph N9.3 kmh N 10.4 mph16.7 kmh 30.15 in1021.0 mb - 0.00 in0.0 mm 0.00 in0.0 mm
11:30 AM 42.6°F5.9°C 26.6°F-3.0°C 53% 12.7 mph N20.4 kmh N 16.1 mph25.9 kmh 30.15 in1021.0 mb - 0.00 in0.0 mm 0.00 in0.0 mm
11:15 AM 42.2°F5.7°C 25.8°F-3.4°C 52% 11.5 mph N18.5 kmh N 16.1 mph25.9 kmh 30.15 in1021.0 mb - 0.00 in0.0 mm 0.00 in0.0 mm
11:00 AM 41.6°F5.3°C 25.3°F-3.7°C 52% 13.8 mph N22.2 kmh N 17.3 mph27.8 kmh 30.14 in1020.7 mb - 0.00 in0.0 mm 0.00 in0.0 mm
10:45 AM 41.4°F5.2°C 25.5°F-3.6°C 53% 12.7 mph N20.4 kmh N 15.0 mph24.1 kmh 30.14 in1020.7 mb - 0.00 in0.0 mm 0.00 in0.0 mm
10:30 AM 41.2°F5.1°C 25.3°F-3.7°C 53% 12.7 mph N20.4 kmh N 13.8 mph22.2 kmh 30.13 in1020.3 mb - 0.00 in0.0 mm 0.00 in0.0 mm
10:15 AM 41.0°F5.0°C 25.1°F-3.8°C 53% 12.7 mph 20.4 kmh 13.8 mph22.2 kmh 30.13 in1020.3 mb - 0.00 in0.0 mm 0.00 in0.0 mm
10:00 AM 40.4°F4.7°C 25.1°F-3.8°C 54% 17.3 mph N27.8 kmh N 19.6 mph31.5 kmh 30.12 in1020.0 mb - 0.00 in0.0 mm 0.00 in0.0 mm
09:45 AM 40.1°F4.5°C 25.3°F-3.7°C 55% 11.5 mph N18.5 kmh N 13.8 mph22.2 kmh 30.12 in1020.0 mb - 0.00 in0.0 mm 0.00 in0.0 mm
09:30 AM 40.0°F4.4°C 25.6°F-3.6°C 56% 5.8 mph NNW9.3 kmh NNW 13.8 mph22.2 kmh 30.11 in1019.6 mb - 0.00 in0.0 mm 0.00 in0.0 mm
09:15 AM 39.8°F4.3°C 25.4°F-3.7°C 56% 10.4 mph N16.7 kmh N 11.5 mph18.5 kmh 30.11 in1019.6 mb - 0.00 in0.0 mm 0.00 in0.0 mm
09:00 AM 39.4°F4.1°C 26.2°F-3.2°C 59% 11.5 mph N18.5 kmh N 13.8 mph22.2 kmh 30.10 in1019.3 mb - 0.00 in0.0 mm 0.00 in0.0 mm
08:45 AM 38.8°F3.8°C 26.1°F-3.3°C 60% 12.7 mph N20.4 kmh N 13.8 mph22.2 kmh 30.10 in1019.3 mb - 0.00 in0.0 mm 0.00 in0.0 mm
08:30 AM 38.1°F3.4°C 26.6°F-3.0°C 63% 10.4 mph N16.7 kmh N 11.5 mph18.5 kmh 30.10 in1019.3 mb - 0.00 in0.0 mm 0.00 in0.0 mm
08:15 AM 37.4°F3.0°C 26.7°F-2.9°C 65% 11.5 mph N18.5 kmh N 15.0 mph24.1 kmh 30.09 in1019.0 mb - 0.00 in0.0 mm 0.00 in0.0 mm
08:00 AM 36.4°F2.4°C 26.8°F-2.9°C 68% 9.2 mph N14.8 kmh N 11.5 mph18.5 kmh 30.09 in1019.0 mb - 0.00 in0.0 mm 0.00 in0.0 mm
07:45 AM 35.3°F1.8°C 26.1°F-3.3°C 69% 8.1 mph N13.0 kmh N 9.2 mph14.8 kmh 30.08 in1018.6 mb - 0.00 in0.0 mm 0.00 in0.0 mm
07:30 AM 34.7°F1.5°C 25.6°F-3.6°C 69% 8.1 mph N13.0 kmh N 9.2 mph14.8 kmh 30.07 in1018.3 mb - 0.00 in0.0 mm 0.00 in0.0 mm
07:15 AM 34.0°F1.1°C 25.2°F-3.8°C 70% 6.9 mph N11.1 kmh N 8.1 mph13.0 kmh 30.07 in1018.3 mb - 0.00 in0.0 mm 0.00 in0.0 mm
07:00 AM 33.4°F0.8°C 25.0°F-3.9°C 71% 9.2 mph N14.8 kmh N 11.5 mph18.5 kmh 30.06 in1017.9 mb - 0.00 in0.0 mm 0.00 in0.0 mm
06:45 AM 33.1°F0.6°C 24.7°F-4.1°C 71% 8.1 mph N13.0 kmh N 9.2 mph14.8 kmh 30.05 in1017.6 mb - 0.00 in0.0 mm 0.00 in0.0 mm
06:30 AM 33.5°F0.8°C 24.8°F-4.0°C 70% 6.9 mph N11.1 kmh N 10.4 mph16.7 kmh 30.05 in1017.6 mb - 0.00 in0.0 mm 0.00 in0.0 mm
06:15 AM 34.2°F1.2°C 25.0°F-3.9°C 69% 9.2 mph N14.8 kmh N 11.5 mph18.5 kmh 30.04 in1017.3 mb - 0.00 in0.0 mm 0.00 in0.0 mm
06:00 AM 34.3°F1.3°C 25.2°F-3.8°C 69% 10.4 mph N16.7 kmh N 11.5 mph18.5 kmh 30.04 in1017.3 mb - 0.00 in0.0 mm 0.00 in0.0 mm
05:45 AM 34.2°F1.2°C 25.1°F-3.8°C 69% 10.4 mph N16.7 kmh N 11.5 mph18.5 kmh 30.03 in1016.9 mb - 0.00 in0.0 mm 0.00 in0.0 mm
05:30 AM 34.3°F1.3°C 25.2°F-3.8°C 69% 9.2 mph N14.8 kmh N 11.5 mph18.5 kmh 30.03 in1016.9 mb - 0.00 in0.0 mm 0.00 in0.0 mm
05:15 AM 34.5°F1.4°C 25.0°F-3.9°C 68% 9.2 mph N14.8 kmh N 11.5 mph18.5 kmh 30.02 in1016.6 mb - 0.00 in0.0 mm 0.00 in0.0 mm
05:00 AM 34.9°F1.6°C 25.4°F-3.7°C 68% 9.2 mph N14.8 kmh N 10.4 mph16.7 kmh 30.02 in1016.6 mb - 0.00 in0.0 mm 0.00 in0.0 mm
04:45 AM 34.8°F1.6°C 25.3°F-3.7°C 68% 10.4 mph N16.7 kmh N 11.5 mph18.5 kmh 30.02 in1016.6 mb - 0.00 in0.0 mm 0.00 in0.0 mm
04:30 AM 35.1°F1.7°C 25.2°F-3.8°C 67% 9.2 mph N14.8 kmh N 11.5 mph18.5 kmh 30.01 in1016.3 mb - 0.00 in0.0 mm 0.00 in0.0 mm
04:15 AM 35.1°F1.7°C 25.2°F-3.8°C 67% 11.5 mph N18.5 kmh N 12.7 mph20.4 kmh 30.00 in1015.9 mb - 0.00 in0.0 mm 0.00 in0.0 mm
04:00 AM 35.1°F1.7°C 25.3°F-3.7°C 67% 11.5 mph N18.5 kmh N 11.5 mph18.5 kmh 29.99 in1015.6 mb - 0.00 in0.0 mm 0.00 in0.0 mm
03:45 AM 34.8°F1.6°C 25.7°F-3.5°C 69% 10.4 mph N16.7 kmh N 11.5 mph18.5 kmh 29.98 in1015.2 mb - 0.00 in0.0 mm 0.00 in0.0 mm
03:30 AM 34.3°F1.3°C 25.2°F-3.8°C 69% 9.2 mph N14.8 kmh N 10.4 mph16.7 kmh 29.98 in1015.2 mb - 0.00 in0.0 mm 0.00 in0.0 mm
03:15 AM 34.4°F1.3°C 24.9°F-3.9°C 68% 9.2 mph N14.8 kmh N 9.2 mph14.8 kmh 29.97 in1014.9 mb - 0.00 in0.0 mm 0.00 in0.0 mm
03:00 AM 34.2°F1.2°C 24.7°F-4.1°C 68% 8.1 mph N13.0 kmh N 11.5 mph18.5 kmh 29.96 in1014.6 mb - 0.00 in0.0 mm 0.00 in0.0 mm
02:45 AM 34.5°F1.4°C 24.6°F-4.1°C 67% 4.6 mph N7.4 kmh N 8.1 mph13.0 kmh 29.96 in1014.6 mb - 0.00 in0.0 mm 0.00 in0.0 mm
02:30 AM 34.6°F1.4°C 24.8°F-4.0°C 67% 9.2 mph N14.8 kmh N 11.5 mph18.5 kmh 29.95 in1014.2 mb - 0.00 in0.0 mm 0.00 in0.0 mm
02:15 AM 34.1°F1.2°C 24.6°F-4.1°C 68% 10.4 mph N16.7 kmh N 11.5 mph18.5 kmh 29.95 in1014.2 mb - 0.00 in0.0 mm 0.00 in0.0 mm
02:00 AM 34.0°F1.1°C 24.5°F-4.2°C 68% 9.2 mph N14.8 kmh N 10.4 mph16.7 kmh 29.94 in1013.9 mb - 0.00 in0.0 mm 0.00 in0.0 mm
01:45 AM 34.0°F1.1°C 24.2°F-4.3°C 67% 5.8 mph N9.3 kmh N 8.1 mph13.0 kmh 29.94 in1013.9 mb - 0.00 in0.0 mm 0.00 in0.0 mm
01:30 AM 34.7°F1.5°C 24.5°F-4.2°C 66% 8.1 mph N13.0 kmh N 9.2 mph14.8 kmh 29.93 in1013.5 mb - 0.00 in0.0 mm 0.00 in0.0 mm
01:15 AM 35.4°F1.9°C 24.8°F-4.0°C 65% 9.2 mph N14.8 kmh N 10.4 mph16.7 kmh 29.92 in1013.2 mb - 0.00 in0.0 mm 0.00 in0.0 mm
01:00 AM 36.1°F2.3°C 24.8°F-4.0°C 63% 9.2 mph N14.8 kmh N 11.5 mph18.5 kmh 29.92 in1013.2 mb - 0.00 in0.0 mm 0.00 in0.0 mm
12:45 AM 36.5°F2.5°C 24.7°F-4.1°C 62% 11.5 mph N18.5 kmh N 13.8 mph22.2 kmh 29.91 in1012.9 mb - 0.00 in0.0 mm 0.00 in0.0 mm
12:30 AM 36.8°F2.7°C 25.0°F-3.9°C 62% 10.4 mph N16.7 kmh N 11.5 mph18.5 kmh 29.91 in1012.9 mb - 0.00 in0.0 mm 0.00 in0.0 mm
12:15 AM 37.0°F2.8°C 25.6°F-3.6°C 63% 10.4 mph N16.7 kmh N 13.8 mph22.2 kmh 29.90 in1012.5 mb - 0.00 in0.0 mm 0.00 in0.0 mm
12:00 AM 37.0°F2.8°C 25.2°F-3.8°C 62% 8.1 mph NNW13.0 kmh NNW 10.4 mph16.7 kmh 29.89 in1012.2 mb - 0.00 in0.0 mm 0.00 in0.0 mm